Time;durP1;ratioP1;P1;durP2;ratioP2;P2;SDS_P1;SDS_P2;PMS_P1;PMS_P2;Temp;Humidity;BMP_temperature;BMP_pressure;BME280_temperature;BME280_humidity;BME280_pressure;Samples;Min_cycle;Max_cycle;Signal;HPM_P1;HPM_P2
2021/12/21 00:01:06;;;;;;;1.33;0.87;;;-0.50;99.00;;;;;;2220728;64;20560;-37
2021/12/21 00:03:32;;;;;;;2.10;1.00;;;-0.60;98.50;;;;;;2219877;64;20571;-37
2021/12/21 00:05:59;;;;;;;2.03;1.00;;;-0.60;98.10;;;;;;2220465;64;20433;-37
2021/12/21 00:08:25;;;;;;;1.50;0.87;;;-0.60;98.10;;;;;;2220302;64;20590;-36
2021/12/21 00:10:52;;;;;;;1.73;0.70;;;-0.60;98.30;;;;;;2220664;64;20604;-38
2021/12/21 00:23:50;;;;;;;1.70;0.75;;;-0.70;98.50;;;;;;2220618;64;20100;-37
2021/12/21 00:26:20;;;;;;;1.50;0.60;;;-0.70;98.70;;;;;;2220402;64;20564;-37
2021/12/21 00:29:01;;;;;;;1.40;0.73;;;-0.70;98.50;;;;;;2219883;64;20093;-37
2021/12/21 00:31:30;;;;;;;2.27;0.53;;;-0.70;98.30;;;;;;2220236;64;20271;-38
2021/12/21 00:33:56;;;;;;;4.37;0.90;;;-0.70;98.00;;;;;;2220416;64;20541;-38
2021/12/21 00:36:25;;;;;;;1.23;0.83;;;-0.70;98.10;;;;;;2220200;64;20111;-40
2021/12/21 00:38:52;;;;;;;1.33;0.70;;;-0.70;98.00;;;;;;2220485;64;20103;-36
2021/12/21 00:41:19;;;;;;;3.20;0.90;;;-0.70;97.80;;;;;;2220370;64;20088;-36
2021/12/21 00:43:45;;;;;;;1.73;1.00;;;-0.70;97.80;;;;;;2220559;64;20088;-37
2021/12/21 00:46:12;;;;;;;2.67;0.70;;;-0.70;98.00;;;;;;2220076;64;20096;-36
2021/12/21 00:48:47;;;;;;;1.67;0.83;;;-0.80;97.80;;;;;;2221036;64;20099;-38
2021/12/21 00:51:14;;;;;;;2.20;0.93;;;-0.90;97.80;;;;;;2221005;64;20099;-37
2021/12/21 00:53:40;;;;;;;1.30;0.80;;;-1.00;98.00;;;;;;2221025;64;20148;-37
2021/12/21 00:56:08;;;;;;;1.90;0.83;;;-1.10;98.20;;;;;;2220906;64;20092;-36
2021/12/21 00:58:34;;;;;;;1.63;1.00;;;-1.20;98.20;;;;;;2221233;64;20160;-37
2021/12/21 01:01:06;;;;;;;3.53;1.40;;;-1.40;98.30;;;;;;2220982;64;20095;-36
2021/12/21 01:03:33;;;;;;;1.40;0.83;;;-1.50;98.50;;;;;;2221189;64;20220;-37
2021/12/21 01:06:12;;;;;;;1.77;0.80;;;-1.70;98.90;;;;;;2220919;64;20107;-37
2021/12/21 01:11:30;;;;;;;3.03;0.90;;;-1.80;99.50;;;;;;2221193;64;20080;-37
2021/12/21 01:14:29;;;;;;;2.63;1.00;;;-1.80;99.40;;;;;;2221015;64;20095;-37
2021/12/21 01:17:08;;;;;;;2.77;0.90;;;-1.80;99.50;;;;;;2220850;64;20120;-38
2021/12/21 01:19:46;;;;;;;3.80;1.53;;;-1.80;99.50;;;;;;2221161;64;20165;-36
2021/12/21 01:22:31;;;;;;;2.43;1.23;;;-1.80;99.70;;;;;;2219093;64;20714;-36
2021/12/21 01:25:19;;;;;;;3.33;1.20;;;-1.80;99.80;;;;;;2219397;64;20101;-36
2021/12/21 01:30:47;;;;;;;2.07;1.03;;;-1.80;99.70;;;;;;2219555;64;20103;-36
2021/12/21 01:34:02;;;;;;;3.23;1.67;;;-1.80;99.80;;;;;;2219207;64;20089;-36
2021/12/21 01:36:23;;;;;;;5.17;1.57;;;-1.80;99.80;;;;;;2218419;64;20678;-36
2021/12/21 01:39:26;;;;;;;2.93;1.40;;;-1.80;99.90;;;;;;2207574;64;20161;-36
2021/12/21 01:41:44;;;;;;;3.57;1.40;;;-1.80;99.80;;;;;;2207416;64;20193;-37
2021/12/21 01:49:49;;;;;;;5.15;1.38;;;-1.70;99.90;;;;;;2207580;64;20581;-36
2021/12/21 01:52:21;;;;;;;6.00;2.03;;;-1.80;99.90;;;;;;2207712;64;20129;-37
2021/12/21 01:54:48;;;;;;;6.17;2.43;;;-1.80;99.90;;;;;;2208230;64;20100;-37
2021/12/21 01:57:15;;;;;;;7.10;2.80;;;-1.90;99.90;;;;;;2208104;64;20171;-37
2021/12/21 01:59:42;;;;;;;11.20;3.27;;;-2.00;99.90;;;;;;2211594;64;20182;-37
2021/12/21 02:02:18;;;;;;;10.67;3.43;;;-2.10;99.90;;;;;;2211604;64;20092;-37
2021/12/21 02:04:57;;;;;;;20.47;2.93;;;-2.10;99.90;;;;;;2211381;64;20172;-37
2021/12/21 02:07:25;;;;;;;15.50;3.93;;;-2.10;99.90;;;;;;2211777;64;20612;-37
2021/12/21 02:09:51;;;;;;;28.03;3.93;;;-2.10;99.90;;;;;;2211546;64;20099;-36
2021/12/21 02:12:48;;;;;;;34.17;4.03;;;-2.10;99.90;;;;;;2211449;64;20100;-35
2021/12/21 02:15:16;;;;;;;21.80;3.90;;;-2.00;99.90;;;;;;2208642;64;20097;-39
2021/12/21 02:23:11;;;;;;;32.07;4.33;;;-2.10;99.90;;;;;;2220660;64;20096;-36
2021/12/21 02:26:02;;;;;;;20.00;4.93;;;-2.10;99.90;;;;;;2223530;64;20089;-36
2021/12/21 02:30:55;;;;;;;73.17;3.93;;;-2.10;99.90;;;;;;2220671;64;20088;-36
2021/12/21 02:33:23;;;;;;;121.10;5.13;;;-2.10;99.90;;;;;;2220628;64;20110;-36
2021/12/21 02:35:49;;;;;;;123.37;5.07;;;-2.10;99.90;;;;;;2220877;64;20134;-36
2021/12/21 02:38:16;;;;;;;61.10;4.63;;;-2.10;99.90;;;;;;2220663;64;20474;-36
2021/12/21 02:40:43;;;;;;;48.53;4.90;;;-2.10;99.90;;;;;;2220753;64;20189;-35
2021/12/21 02:43:10;;;;;;;51.60;5.00;;;-2.10;99.90;;;;;;2220633;64;20169;-36
2021/12/21 02:45:38;;;;;;;43.10;4.47;;;-2.10;99.90;;;;;;2220691;64;20093;-35
2021/12/21 02:48:08;;;;;;;93.57;5.73;;;-2.10;99.90;;;;;;2220722;64;20586;-36
2021/12/21 02:50:36;;;;;;;71.00;4.80;;;-2.10;99.90;;;;;;2219941;64;20161;-36
2021/12/21 02:53:03;;;;;;;66.57;5.70;;;-2.00;99.90;;;;;;2220636;64;20104;-36
2021/12/21 02:55:29;;;;;;;29.50;3.87;;;-2.00;99.90;;;;;;2219834;64;20096;-37
2021/12/21 02:57:57;;;;;;;46.23;6.33;;;-2.00;99.90;;;;;;2220839;64;20081;-36
2021/12/21 03:00:25;;;;;;;55.57;6.77;;;-2.00;99.90;;;;;;2220575;64;20553;-36
2021/12/21 03:02:52;;;;;;;32.23;5.37;;;-2.00;99.90;;;;;;2220595;64;20105;-37
2021/12/21 03:05:19;;;;;;;43.60;6.33;;;-2.00;99.90;;;;;;2220640;64;20163;-35
2021/12/21 03:10:22;;;;;;;51.10;5.40;;;-1.90;99.90;;;;;;2220236;64;20510;-36
2021/12/21 03:15:22;;;;;;;62.60;5.63;;;-1.80;99.90;;;;;;2220676;64;20097;-36
2021/12/21 03:17:49;;;;;;;59.40;5.07;;;-1.90;99.90;;;;;;2220533;64;20092;-37
2021/12/21 03:20:16;;;;;;;52.93;3.50;;;-1.90;99.90;;;;;;2220397;64;20092;-36
2021/12/21 03:22:42;;;;;;;72.90;4.50;;;-1.90;99.90;;;;;;2220627;64;20101;-36
2021/12/21 03:25:09;;;;;;;56.33;4.83;;;-2.00;99.90;;;;;;2220651;64;20190;-35
2021/12/21 03:27:36;;;;;;;40.53;4.70;;;-1.90;99.90;;;;;;2220563;64;20483;-37
2021/12/21 03:30:03;;;;;;;95.43;6.07;;;-2.00;99.90;;;;;;2220567;64;20108;-36
2021/12/21 03:32:30;;;;;;;58.17;5.03;;;-2.00;99.90;;;;;;2220715;64;20081;-52
2021/12/21 03:34:56;;;;;;;159.70;6.67;;;-2.00;99.90;;;;;;2220664;64;20097;-36
2021/12/21 03:37:23;;;;;;;66.10;5.90;;;-2.00;99.90;;;;;;2220481;64;20104;-35
2021/12/21 03:39:54;;;;;;;38.77;3.93;;;-2.00;99.90;;;;;;2220424;64;20556;-35
2021/12/21 03:42:21;;;;;;;55.93;5.07;;;-2.00;99.90;;;;;;2220600;64;20766;-36
2021/12/21 03:44:48;;;;;;;26.70;4.20;;;-2.00;99.90;;;;;;2220554;64;20544;-36
2021/12/21 03:47:16;;;;;;;15.97;3.50;;;-2.00;99.90;;;;;;2220572;64;20092;-36
2021/12/21 03:52:17;;;;;;;12.53;4.20;;;-2.00;99.90;;;;;;2214741;64;20089;-36
2021/12/21 03:54:54;;;;;;;19.10;4.07;;;-2.00;99.90;;;;;;2214801;64;20558;-39
2021/12/21 03:57:21;;;;;;;9.57;3.10;;;-2.00;99.90;;;;;;2214971;64;20097;-36
2021/12/21 03:59:49;;;;;;;10.67;3.23;;;-2.10;99.90;;;;;;2214940;64;20096;-35
2021/12/21 04:02:15;;;;;;;20.43;3.80;;;-2.00;99.90;;;;;;2211722;64;20167;-35
2021/12/21 04:04:42;;;;;;;14.37;4.70;;;-2.10;99.90;;;;;;2214892;64;20203;-36
2021/12/21 04:07:09;;;;;;;15.23;4.00;;;-2.10;99.90;;;;;;2214939;64;20198;-36
2021/12/21 04:09:36;;;;;;;10.13;2.90;;;-2.00;99.90;;;;;;2214801;64;20166;-36
2021/12/21 04:12:03;;;;;;;19.33;4.43;;;-2.10;99.90;;;;;;2215110;64;20167;-53
2021/12/21 04:14:30;;;;;;;12.93;4.20;;;-2.10;99.90;;;;;;2211773;64;20588;-36
2021/12/21 04:16:57;;;;;;;11.00;3.50;;;-2.10;99.90;;;;;;2214891;64;20097;-36
2021/12/21 04:19:24;;;;;;;12.53;3.87;;;-2.10;99.90;;;;;;2211760;64;20157;-36
2021/12/21 04:21:50;;;;;;;13.53;3.50;;;-2.10;99.90;;;;;;2215681;64;20108;-36
2021/12/21 04:24:17;;;;;;;12.07;3.17;;;-2.10;99.90;;;;;;2215582;64;20623;-35
2021/12/21 04:26:43;;;;;;;10.63;3.57;;;-2.10;99.90;;;;;;2215445;64;20127;-36
2021/12/21 04:29:10;;;;;;;12.33;3.90;;;-2.10;99.90;;;;;;2213806;64;20080;-36
2021/12/21 04:31:36;;;;;;;14.60;4.57;;;-2.10;99.90;;;;;;2221140;64;20092;-37
2021/12/21 04:34:03;;;;;;;7.70;2.33;;;-2.10;99.90;;;;;;2221417;64;20089;-37
2021/12/21 04:36:30;;;;;;;10.63;2.93;;;-2.20;99.90;;;;;;2220561;64;20104;-35
2021/12/21 04:38:59;;;;;;;4.27;1.73;;;-2.20;99.90;;;;;;2223533;64;20080;-36
2021/12/21 04:41:28;;;;;;;5.23;1.97;;;-2.30;99.90;;;;;;2221108;64;20081;-37
2021/12/21 04:43:59;;;;;;;6.13;2.53;;;-2.30;99.90;;;;;;2221073;64;20161;-38
2021/12/21 04:46:25;;;;;;;6.43;2.67;;;-2.20;99.90;;;;;;2221124;64;20089;-35
2021/12/21 04:48:52;;;;;;;7.20;2.63;;;-2.20;99.90;;;;;;2220898;64;20084;-37
2021/12/21 04:51:19;;;;;;;7.33;2.13;;;-2.20;99.90;;;;;;2221159;64;20161;-39
2021/12/21 04:53:46;;;;;;;5.10;2.13;;;-2.20;99.90;;;;;;2220961;64;20096;-37
2021/12/21 04:56:12;;;;;;;8.43;2.43;;;-2.20;99.90;;;;;;2220308;64;20192;-36
2021/12/21 04:58:39;;;;;;;4.30;1.90;;;-2.20;99.90;;;;;;2221136;64;20088;-36
2021/12/21 05:01:05;;;;;;;5.03;1.97;;;-2.20;99.90;;;;;;2220871;64;20104;-51
2021/12/21 05:03:32;;;;;;;5.10;1.90;;;-2.20;99.80;;;;;;2221214;64;20089;-37
2021/12/21 05:05:59;;;;;;;4.97;2.10;;;-2.20;99.30;;;;;;2220925;64;20096;-41
2021/12/21 05:08:31;;;;;;;7.73;2.23;;;-2.20;98.80;;;;;;2221138;64;20176;-35
2021/12/21 05:11:04;;;;;;;6.10;1.97;;;-2.20;99.00;;;;;;2220985;64;20560;-37
2021/12/21 05:13:32;;;;;;;4.53;2.03;;;-2.20;99.10;;;;;;2221150;64;20085;-36
2021/12/21 05:15:59;;;;;;;5.10;2.03;;;-2.10;98.60;;;;;;2219910;64;20131;-35
2021/12/21 05:18:26;;;;;;;2.07;1.30;;;-2.20;98.70;;;;;;2221033;64;20092;-36
2021/12/21 05:20:52;;;;;;;4.73;2.67;;;-2.20;98.50;;;;;;2220748;64;20076;-40
2021/12/21 05:23:19;;;;;;;5.80;2.10;;;-2.20;98.80;;;;;;2220884;64;20101;-36
2021/12/21 05:25:45;;;;;;;3.23;1.70;;;-2.10;98.60;;;;;;2220188;64;20463;-37
2021/12/21 05:28:13;;;;;;;4.13;1.47;;;-2.20;98.80;;;;;;2220865;64;20104;-37
2021/12/21 05:30:40;;;;;;;4.30;1.73;;;-2.20;98.70;;;;;;2220723;64;20148;-36
2021/12/21 05:33:06;;;;;;;3.40;1.63;;;-2.20;98.40;;;;;;2220891;64;20107;-36
2021/12/21 05:35:34;;;;;;;6.10;1.60;;;-2.00;98.60;;;;;;2220777;64;20093;-37
2021/12/21 05:38:31;;;;;;;3.90;1.70;;;-1.90;98.70;;;;;;2220568;64;20503;-35
2021/12/21 05:41:01;;;;;;;17.37;8.10;;;-2.00;98.10;;;;;;2221015;64;20156;-36
2021/12/21 05:43:28;;;;;;;6.43;2.50;;;-2.00;98.00;;;;;;2220759;64;20089;-36
2021/12/21 05:45:54;;;;;;;6.47;2.80;;;-2.10;98.20;;;;;;2220236;64;20164;-36
2021/12/21 05:48:21;;;;;;;5.77;1.90;;;-2.10;98.20;;;;;;2220566;64;20099;-36
2021/12/21 05:50:47;;;;;;;7.73;3.73;;;-2.20;98.60;;;;;;2220739;64;20160;-37
2021/12/21 05:53:14;;;;;;;12.53;5.17;;;-2.10;98.70;;;;;;2220812;64;20084;-36
2021/12/21 05:55:41;;;;;;;36.50;18.87;;;-2.10;98.80;;;;;;2220971;64;20107;-36
2021/12/21 05:58:08;;;;;;;6.13;3.03;;;-2.10;98.90;;;;;;2220886;64;20085;-37
2021/12/21 06:00:34;;;;;;;5.70;2.03;;;-2.10;98.90;;;;;;2220818;64;20540;-37
2021/12/21 06:03:01;;;;;;;5.57;2.27;;;-2.10;98.70;;;;;;2220698;64;20088;-35
2021/12/21 06:05:28;;;;;;;16.17;8.43;;;-2.00;98.50;;;;;;2220987;64;20085;-36
2021/12/21 06:07:55;;;;;;;11.77;5.97;;;-2.00;98.70;;;;;;2220827;64;20104;-37
2021/12/21 06:10:30;;;;;;;3.97;2.40;;;-2.00;98.60;;;;;;2220915;64;20433;-37
2021/12/21 06:26:03;;;;;;;2.33;1.30;;;-1.80;99.20;;;;;;2220190;64;20080;-35
2021/12/21 06:28:29;;;;;;;3.80;2.10;;;-1.80;99.20;;;;;;2220778;64;20464;-38
2021/12/21 06:30:56;;;;;;;2.63;1.50;;;-1.80;99.00;;;;;;2220720;64;20541;-35
2021/12/21 06:33:23;;;;;;;2.40;1.40;;;-1.70;99.10;;;;;;2219984;64;20092;-35
2021/12/21 06:35:49;;;;;;;3.07;1.53;;;-1.60;99.00;;;;;;2220848;64;20108;-36
2021/12/21 06:38:16;;;;;;;4.10;1.90;;;-1.60;98.50;;;;;;2220747;64;20107;-36
2021/12/21 06:40:43;;;;;;;4.00;1.73;;;-1.60;98.30;;;;;;2220733;64;20138;-36
2021/12/21 06:43:13;;;;;;;3.07;1.40;;;-1.50;98.60;;;;;;2220694;64;20147;-38
2021/12/21 06:53:39;;;;;;;3.53;1.33;;;-1.50;98.80;;;;;;2220892;64;20088;-36
2021/12/21 06:56:07;;;;;;;4.53;1.70;;;-1.50;98.70;;;;;;2220708;64;20085;-36
2021/12/21 06:58:33;;;;;;;4.47;1.30;;;-1.40;98.30;;;;;;2220620;64;20172;-37
2021/12/21 07:01:02;;;;;;;2.97;1.23;;;-1.30;98.30;;;;;;2220054;64;20579;-36
2021/12/21 07:03:29;;;;;;;3.43;1.23;;;-1.40;98.30;;;;;;2220628;64;20183;-36
2021/12/21 07:05:56;;;;;;;3.93;2.03;;;-1.40;98.20;;;;;;2220693;64;20088;-37
2021/12/21 07:08:27;;;;;;;12.80;6.30;;;-1.30;97.90;;;;;;2220006;64;20104;-43
2021/12/21 07:11:06;;;;;;;20.03;9.63;;;-1.30;97.70;;;;;;2220680;64;20088;-36
2021/12/21 07:19:03;;;;;;;5.70;2.00;;;-1.30;97.30;;;;;;2220165;64;20084;-37
2021/12/21 07:21:29;;;;;;;2.73;1.50;;;-1.30;97.40;;;;;;2220457;64;20095;-40
2021/12/21 07:23:56;;;;;;;3.93;1.47;;;-1.20;97.20;;;;;;2220625;64;20127;-36
2021/12/21 07:26:22;;;;;;;2.40;1.40;;;-1.20;97.10;;;;;;2220460;64;20097;-37
2021/12/21 07:28:49;;;;;;;3.13;1.10;;;-1.20;97.40;;;;;;2220761;64;20084;-36
2021/12/21 07:31:15;;;;;;;2.60;1.20;;;-1.20;97.20;;;;;;2220545;64;20645;-36
2021/12/21 07:33:42;;;;;;;4.60;1.17;;;-1.10;97.10;;;;;;2220682;64;20472;-35
2021/12/21 07:36:08;;;;;;;3.73;2.30;;;-1.00;96.70;;;;;;2220515;64;20108;-41
2021/12/21 07:38:35;;;;;;;4.03;1.50;;;-1.00;95.90;;;;;;2220583;64;20156;-35
2021/12/21 07:41:02;;;;;;;4.63;1.10;;;-1.00;96.10;;;;;;2220551;64;20511;-35
2021/12/21 07:43:29;;;;;;;3.90;1.20;;;-0.90;95.60;;;;;;2220480;64;20112;-34
2021/12/21 07:45:55;;;;;;;3.13;1.17;;;-0.90;95.60;;;;;;2220490;64;20177;-35
2021/12/21 07:48:22;;;;;;;2.20;0.93;;;-0.90;95.60;;;;;;2220334;64;20099;-37
2021/12/21 07:50:50;;;;;;;1.93;1.07;;;-0.80;95.30;;;;;;2220349;64;20623;-37
2021/12/21 07:53:18;;;;;;;2.27;1.13;;;-0.80;95.50;;;;;;2222605;64;20093;-36
2021/12/21 07:55:44;;;;;;;6.50;1.50;;;-0.90;95.70;;;;;;2222550;64;20092;-36
2021/12/21 07:58:11;;;;;;;1.83;0.93;;;-0.80;95.60;;;;;;2222840;64;20610;-46
2021/12/21 08:00:37;;;;;;;1.50;0.80;;;-0.70;94.80;;;;;;2222676;64;20154;-37
2021/12/21 08:03:04;;;;;;;2.10;0.97;;;-0.60;94.30;;;;;;2222793;64;20088;-37
2021/12/21 08:05:33;;;;;;;3.37;1.00;;;-0.60;94.70;;;;;;2222546;64;20567;-38
2021/12/21 08:08:09;;;;;;;2.30;1.00;;;-0.30;94.60;;;;;;2222722;64;20177;-42
2021/12/21 08:10:52;;;;;;;1.93;1.17;;;-0.60;94.60;;;;;;2222597;64;20439;-42
2021/12/21 08:13:19;;;;;;;2.43;1.00;;;-0.40;93.90;;;;;;2222619;64;20088;-42
2021/12/21 08:15:47;;;;;;;4.40;1.33;;;-0.50;93.80;;;;;;2219450;64;20645;-41
2021/12/21 08:18:13;;;;;;;3.87;1.17;;;-0.50;94.60;;;;;;2219582;64;20161;-41
2021/12/21 08:20:40;;;;;;;1.37;0.80;;;-0.70;93.90;;;;;;2222543;64;20103;-42
2021/12/21 08:23:07;;;;;;;3.30;1.03;;;-0.70;94.90;;;;;;2222778;64;20084;-42
2021/12/21 08:25:34;;;;;;;2.17;0.80;;;-1.00;95.20;;;;;;2222406;64;20650;-44
2021/12/21 08:28:01;;;;;;;2.40;1.20;;;-1.10;95.80;;;;;;2222581;64;20100;-42
2021/12/21 08:30:28;;;;;;;2.80;1.40;;;-1.00;95.70;;;;;;2221629;64;20100;-42
2021/12/21 08:32:56;;;;;;;3.37;1.30;;;-1.20;96.30;;;;;;2220551;64;20619;-41
2021/12/21 08:35:23;;;;;;;2.53;1.10;;;-1.00;96.50;;;;;;2220315;64;20092;-41
2021/12/21 08:37:53;;;;;;;5.23;1.13;;;-0.90;96.00;;;;;;2220328;64;20100;-40
2021/12/21 08:40:20;;;;;;;2.33;1.27;;;-1.00;96.30;;;;;;2220173;64;20100;-41
2021/12/21 08:42:49;;;;;;;2.03;0.73;;;-1.10;96.10;;;;;;2220447;64;20146;-39
2021/12/21 08:45:16;;;;;;;1.73;1.00;;;-1.20;95.90;;;;;;2219615;64;20115;-40
2021/12/21 08:47:43;;;;;;;1.60;0.97;;;-1.30;95.70;;;;;;2220213;64;20154;-40
2021/12/21 08:50:10;;;;;;;2.43;1.13;;;-1.10;95.50;;;;;;2219501;64;20165;-37
2021/12/21 08:52:37;;;;;;;1.80;1.07;;;-1.30;95.80;;;;;;2220481;64;20106;-38
2021/12/21 08:55:08;;;;;;;2.20;1.43;;;-1.20;95.50;;;;;;2220195;64;20103;-38
2021/12/21 08:57:36;;;;;;;2.07;1.17;;;-1.20;95.70;;;;;;2220134;64;20131;-38
2021/12/21 09:00:06;;;;;;;6.43;0.90;;;-1.40;94.90;;;;;;2220349;64;20116;-38
2021/12/21 09:02:35;;;;;;;3.40;1.50;;;-1.30;95.30;;;;;;2220323;64;20088;-37
2021/12/21 09:05:14;;;;;;;2.03;1.13;;;-1.30;95.90;;;;;;2219458;64;20100;-38
2021/12/21 09:07:44;;;;;;;2.57;1.00;;;-1.20;95.80;;;;;;2221020;64;20105;-39
2021/12/21 09:10:12;;;;;;;2.73;1.20;;;-1.30;95.00;;;;;;2220920;64;20564;-37
2021/12/21 09:12:39;;;;;;;4.57;1.83;;;-1.20;95.70;;;;;;2220501;64;20104;-37
2021/12/21 09:15:06;;;;;;;5.70;1.30;;;-1.00;95.20;;;;;;2220985;64;20097;-39
2021/12/21 09:17:32;;;;;;;2.57;1.30;;;-0.90;94.60;;;;;;2221057;64;20561;-38
2021/12/21 09:19:59;;;;;;;5.10;1.57;;;-0.90;95.20;;;;;;2220929;64;20542;-38
2021/12/21 09:22:25;;;;;;;4.33;1.33;;;-0.90;94.40;;;;;;2219226;64;20173;-39
2021/12/21 09:24:52;;;;;;;2.97;1.90;;;-1.10;95.00;;;;;;2219115;64;20155;-40
2021/12/21 09:27:18;;;;;;;4.70;1.57;;;-0.90;95.00;;;;;;2219402;64;20109;-40
2021/12/21 09:29:45;;;;;;;3.13;1.90;;;-1.10;95.40;;;;;;2215760;64;20202;-38
2021/12/21 09:32:13;;;;;;;3.97;1.87;;;-1.10;94.00;;;;;;2219266;64;20140;-37
2021/12/21 09:34:40;;;;;;;5.53;3.20;;;-1.00;92.80;;;;;;2218987;64;20108;-37
2021/12/21 09:37:10;;;;;;;2.67;2.10;;;-1.10;92.00;;;;;;2219159;64;20096;-37
2021/12/21 09:39:36;;;;;;;4.90;3.03;;;-0.90;89.70;;;;;;2218905;64;20080;-36
2021/12/21 09:42:03;;;;;;;2.27;1.20;;;-1.10;89.00;;;;;;2219331;64;20142;-35
2021/12/21 09:44:30;;;;;;;3.40;1.57;;;-1.30;85.40;;;;;;2215949;64;20103;-36
2021/12/21 09:46:57;;;;;;;5.23;2.83;;;-1.40;88.90;;;;;;2218337;64;20098;-36
2021/12/21 09:49:23;;;;;;;6.67;1.27;;;-1.50;88.40;;;;;;2219010;64;20077;-35
2021/12/21 09:51:50;;;;;;;3.23;2.17;;;-1.40;84.60;;;;;;2219367;64;20092;-34
2021/12/21 09:54:19;;;;;;;5.90;1.50;;;-1.70;85.70;;;;;;2219045;64;20097;-35
2021/12/21 09:56:45;;;;;;;1.60;0.53;;;-2.00;85.60;;;;;;2219298;64;20085;-34
2021/12/21 09:59:12;;;;;;;9.40;2.47;;;-1.70;86.10;;;;;;2218627;64;20101;-34
2021/12/21 10:01:38;;;;;;;4.43;2.10;;;-1.80;86.20;;;;;;2216959;64;20085;-34
2021/12/21 10:04:05;;;;;;;7.10;4.80;;;-1.80;85.70;;;;;;2216936;64;20174;-35
2021/12/21 10:06:41;;;;;;;9.20;3.17;;;-1.70;87.50;;;;;;2217063;64;20096;-35
2021/12/21 10:09:07;;;;;;;6.73;2.40;;;-1.60;83.00;;;;;;2216191;64;20097;-33
2021/12/21 10:11:41;;;;;;;4.10;2.70;;;-1.80;83.80;;;;;;2216878;64;20124;-34
2021/12/21 10:14:08;;;;;;;2.47;1.70;;;-1.80;84.50;;;;;;2216617;64;20097;-35
2021/12/21 10:16:34;;;;;;;4.43;2.00;;;-1.80;83.70;;;;;;2216788;64;20124;-35
2021/12/21 10:19:01;;;;;;;3.87;2.27;;;-1.80;85.30;;;;;;2216532;64;20131;-35
2021/12/21 10:21:27;;;;;;;3.97;1.93;;;-1.80;82.80;;;;;;2216945;64;20089;-34
2021/12/21 10:23:57;;;;;;;4.80;2.30;;;-2.00;82.90;;;;;;2216626;64;20097;-38
2021/12/21 10:26:29;;;;;;;2.67;1.53;;;-1.90;85.10;;;;;;2216905;64;20161;-58
2021/12/21 10:29:01;;;;;;;4.93;2.37;;;-2.20;82.00;;;;;;2216638;64;20131;-34
2021/12/21 10:31:32;;;;;;;3.20;1.80;;;-2.00;83.30;;;;;;2216967;64;20103;-34
2021/12/21 10:34:06;;;;;;;3.63;1.92;;;-2.20;82.20;;;;;;2216808;64;20108;-33
2021/12/21 10:36:39;;;;;;;4.30;2.20;;;-2.20;82.90;;;;;;2216899;64;20120;-34
2021/12/21 10:39:05;;;;;;;5.87;2.63;;;-2.20;82.20;;;;;;2216238;64;20449;-32
2021/12/21 10:41:40;;;;;;;3.93;2.07;;;-2.10;83.20;;;;;;2216827;64;20096;-35
2021/12/21 10:44:18;;;;;;;4.07;2.38;;;-2.20;84.80;;;;;;2216794;64;20527;-33
2021/12/21 10:46:46;;;;;;;6.30;2.70;;;-2.10;83.40;;;;;;2217433;64;20145;-36
2021/12/21 10:49:18;;;;;;;3.80;1.77;;;-2.10;83.60;;;;;;2220686;64;20180;-36
2021/12/21 10:52:05;;;;;;;3.30;1.83;;;-2.30;85.00;;;;;;2220618;64;20203;-36
2021/12/21 10:54:42;;;;;;;4.30;2.13;;;-2.20;83.90;;;;;;2220642;64;20099;-36
2021/12/21 10:57:24;;;;;;;2.97;2.10;;;-2.30;85.10;;;;;;2220554;64;20177;-37
2021/12/21 10:59:54;;;;;;;4.50;2.63;;;-2.50;81.00;;;;;;2220572;64;20080;-35
2021/12/21 11:02:28;;;;;;;2.83;1.80;;;-2.50;83.00;;;;;;2211779;64;20496;-35
2021/12/21 11:04:58;;;;;;;9.07;3.87;;;-2.30;85.40;;;;;;2214998;64;20173;-35
2021/12/21 11:07:33;;;;;;;2.30;1.60;;;-2.40;84.30;;;;;;2215208;64;20140;-36
2021/12/21 11:10:13;;;;;;;3.03;1.83;;;-2.60;84.10;;;;;;2214948;64;20182;-35
2021/12/21 11:12:46;;;;;;;2.70;1.57;;;-2.50;82.40;;;;;;2214995;64;20089;-35
2021/12/21 11:15:16;;;;;;;2.30;1.13;;;-2.50;82.10;;;;;;2214945;64;20108;-34
2021/12/21 11:17:45;;;;;;;3.37;2.00;;;-2.50;81.80;;;;;;2214986;64;20104;-34
2021/12/21 11:20:13;;;;;;;3.63;1.53;;;-2.60;84.10;;;;;;2214952;64;20096;-34
2021/12/21 11:22:41;;;;;;;4.80;2.40;;;-2.70;81.50;;;;;;2214884;64;20092;-35
2021/12/21 11:25:08;;;;;;;3.77;1.73;;;-2.70;85.10;;;;;;2214846;64;20093;-35
2021/12/21 11:27:35;;;;;;;3.87;1.70;;;-2.70;82.20;;;;;;2214868;64;20089;-35
2021/12/21 11:30:07;;;;;;;3.80;2.10;;;-2.80;82.70;;;;;;2214493;64;20078;-35
2021/12/21 11:32:34;;;;;;;4.87;2.47;;;-2.80;82.70;;;;;;2214883;64;20569;-35
2021/12/21 11:37:40;;;;;;;4.77;2.27;;;-2.80;85.10;;;;;;2211975;64;20170;-41
2021/12/21 11:40:08;;;;;;;3.43;1.93;;;-2.90;84.70;;;;;;2219113;64;20100;-35
2021/12/21 11:42:43;;;;;;;4.80;2.10;;;-3.00;82.50;;;;;;2220609;64;20088;-36
2021/12/21 11:45:14;;;;;;;6.60;1.80;;;-2.90;85.30;;;;;;2220528;64;20631;-35
2021/12/21 11:48:00;;;;;;;4.13;1.73;;;-2.90;85.10;;;;;;2220448;64;20103;-36
2021/12/21 11:50:27;;;;;;;4.27;1.50;;;-2.90;81.40;;;;;;2220324;64;20073;-34
2021/12/21 11:52:56;;;;;;;3.57;2.00;;;-3.10;80.60;;;;;;2219819;64;20177;-35
2021/12/21 11:55:24;;;;;;;4.63;2.07;;;-3.10;83.30;;;;;;2220503;64;20092;-33
2021/12/21 11:57:55;;;;;;;4.60;2.30;;;-3.10;82.50;;;;;;2220499;64;20110;-35
2021/12/21 12:00:24;;;;;;;4.17;1.80;;;-3.20;80.90;;;;;;2220497;64;20089;-34
2021/12/21 12:02:51;;;;;;;3.03;1.20;;;-3.30;80.40;;;;;;2220383;64;20099;-37
2021/12/21 12:05:26;;;;;;;4.77;2.63;;;-3.40;79.50;;;;;;2220270;64;20497;-34
2021/12/21 12:08:09;;;;;;;4.30;2.03;;;-3.40;81.70;;;;;;2220498;64;20123;-34
2021/12/21 12:10:37;;;;;;;2.37;1.63;;;-3.40;82.70;;;;;;2220345;64;20546;-34
2021/12/21 12:13:34;;;;;;;4.40;2.17;;;-3.40;79.60;;;;;;2220441;64;20091;-35
2021/12/21 12:16:02;;;;;;;4.10;1.70;;;-3.40;83.10;;;;;;2218827;64;20085;-40
2021/12/21 12:18:37;;;;;;;4.17;2.30;;;-3.50;81.50;;;;;;2220051;64;20174;-36
2021/12/21 12:21:11;;;;;;;3.80;1.58;;;-3.50;81.90;;;;;;2219740;64;20092;-37
2021/12/21 12:24:04;;;;;;;3.23;1.50;;;-3.50;78.70;;;;;;2220434;64;20564;-37
2021/12/21 12:26:34;;;;;;;2.60;1.37;;;-3.60;81.50;;;;;;2220257;64;20314;-38
2021/12/21 12:29:18;;;;;;;2.97;1.80;;;-3.60;81.10;;;;;;2220345;64;20181;-53
2021/12/21 12:32:05;;;;;;;2.47;1.40;;;-3.60;81.50;;;;;;2220290;64;20115;-33
2021/12/21 12:34:36;;;;;;;3.00;2.03;;;-3.60;81.30;;;;;;2220328;64;20088;-41
2021/12/21 12:37:23;;;;;;;2.63;1.87;;;-3.70;81.50;;;;;;2220086;64;20554;-42
2021/12/21 12:39:51;;;;;;;2.70;1.70;;;-3.70;80.80;;;;;;2220519;64;20107;-35
2021/12/21 12:42:24;;;;;;;4.47;1.73;;;-3.80;81.40;;;;;;2220610;64;20160;-34
2021/12/21 12:45:13;;;;;;;5.00;2.30;;;-3.80;82.40;;;;;;2220824;64;20127;-35
2021/12/21 12:47:44;;;;;;;3.70;2.07;;;-3.70;83.40;;;;;;2220806;64;20453;-34
2021/12/21 12:50:18;;;;;;;8.70;3.40;;;-3.80;83.30;;;;;;2221073;64;20085;-34
2021/12/21 12:52:56;;;;;;;3.50;1.67;;;-3.70;85.00;;;;;;2220265;64;20108;-35
2021/12/21 12:55:24;;;;;;;10.00;3.30;;;-3.80;83.70;;;;;;2220983;64;20080;-35
2021/12/21 12:57:55;;;;;;;4.93;2.73;;;-3.80;83.10;;;;;;2220716;64;20205;-34
2021/12/21 13:00:27;;;;;;;4.80;2.70;;;-3.80;84.10;;;;;;2220897;64;20103;-33
2021/12/21 13:03:06;;;;;;;4.20;2.40;;;-3.90;83.10;;;;;;2220180;64;20128;-34
2021/12/21 13:05:37;;;;;;;3.03;1.40;;;-3.90;83.40;;;;;;2220890;64;20084;-55
2021/12/21 13:08:30;;;;;;;5.83;2.50;;;-4.00;83.00;;;;;;2220636;64;20101;-42
2021/12/21 13:10:58;;;;;;;4.57;1.57;;;-4.00;82.20;;;;;;2220329;64;20475;-36
2021/12/21 13:13:35;;;;;;;3.20;1.77;;;-4.10;82.10;;;;;;2220700;64;20526;-35
2021/12/21 13:16:07;;;;;;;4.90;1.97;;;-4.10;83.00;;;;;;2220261;64;20104;-34
2021/12/21 13:18:48;;;;;;;3.57;2.20;;;-4.10;84.40;;;;;;2220722;64;20105;-39
2021/12/21 13:21:24;;;;;;;4.03;1.23;;;-4.10;82.00;;;;;;2220899;64;20104;-38
2021/12/21 13:23:51;;;;;;;4.40;1.60;;;-4.20;81.10;;;;;;2220255;64;20480;-33
2021/12/21 13:26:19;;;;;;;3.93;2.67;;;-4.20;82.00;;;;;;2220989;64;20135;-34
2021/12/21 13:28:53;;;;;;;3.20;1.87;;;-4.10;83.00;;;;;;2220633;64;20097;-38
2021/12/21 13:31:21;;;;;;;6.10;1.95;;;-4.20;82.30;;;;;;2220868;64;20143;-34
2021/12/21 13:33:58;;;;;;;4.73;1.60;;;-4.20;82.80;;;;;;2220682;64;20471;-34
2021/12/21 13:36:37;;;;;;;4.10;1.30;;;-4.20;82.50;;;;;;2220931;64;20480;-34
2021/12/21 13:39:24;;;;;;;4.60;1.97;;;-4.20;82.90;;;;;;2220856;64;20099;-38
2021/12/21 13:41:56;;;;;;;2.93;1.50;;;-4.30;84.50;;;;;;2220839;64;20092;-48
2021/12/21 13:44:36;;;;;;;6.10;2.13;;;-4.30;82.50;;;;;;2220632;64;20080;-35
2021/12/21 13:47:16;;;;;;;4.10;1.50;;;-4.30;83.70;;;;;;2220888;64;20099;-33
2021/12/21 13:50:06;;;;;;;4.43;1.77;;;-4.40;83.70;;;;;;2220754;64;20173;-38
2021/12/21 13:52:41;;;;;;;4.20;1.90;;;-4.30;84.90;;;;;;2220723;64;20100;-41
2021/12/21 13:55:23;;;;;;;1.83;0.68;;;-4.30;83.70;;;;;;2220557;64;20157;-35
2021/12/21 13:57:51;;;;;;;3.07;1.67;;;-4.30;83.40;;;;;;2220071;64;20100;-33
2021/12/21 14:00:18;;;;;;;3.13;1.73;;;-4.40;83.90;;;;;;2220721;64;20111;-34
2021/12/21 14:02:51;;;;;;;5.10;3.50;;;-4.40;83.50;;;;;;2220812;64;20641;-38
2021/12/21 14:05:19;;;;;;;4.10;2.53;;;-4.30;84.40;;;;;;2220743;64;20164;-34
2021/12/21 14:07:49;;;;;;;4.67;1.83;;;-4.40;84.70;;;;;;2220191;64;20144;-34